Het weer levert geen direct gevaar op.    Er zijn geen waarschuwingen afgegeven.


Onweer radar Meer informatie blitzortung!


Regen radar Meer informatie rain snow radar


Bezoek onze andere website:

Template documentation
and downloads

And another site



Select another period ( hide this area )

Eenheden Periode Custom range Directly to
Metrisch Engels Beide
Dagelijkse Wekelijkse Maandelijkse Jaarlijkse
use both date-selectors for a custom range
previous Dag
With this date

WeatherUnderground graphs for this period ( click here )


Dagelijkse Samenvatting Woensdag 17 oktober 2018
Tijd Temp. ( °C ) Dew pt. ( °C ) Wind ( km/h ) van Windvlaag ( km/h ) Luchtdruk ( hPa ) Humid.( % ) Rainrate ( cm )
Hoog18,9 14,4 18,5 WZW ( 533/1654 ) 13,7 1019,8 93 -
Gemiddeld16,5 13,1 7,6 WZW #72/217 4,5 1018,0 81 -
Laag13,9 11,4 -   0,0 1016,4 68 -
Dagelijkse Tabular details for Woensdag 17 oktober 2018
Tijd Temp. ( °C ) Dew pt. ( °C ) Wind ( km/h ) van Windvlaag ( km/h ) Luchtdruk ( hPa ) Humid.( % ) Rainrate ( cm )
00:04 16,9 12,0 7,4 ZO 3,5 1016,7 73 -
00:09 16,9 12,0 5,6 ZZO 3,1 1016,7 73 -
00:14 16,9 12,1 7,4 ZZO 0,6 1016,6 73 -
00:19 16,9 12,1 5,6 ZZO 2,6 1016,7 73 -
00:24 17,0 11,9 5,6 Zuiden 2,3 1016,7 72 -
00:29 17,0 11,9 5,6 ZZO 2,9 1016,6 72 -
00:34 17,0 11,9 5,6 ZZO 0,8 1016,6 72 -
00:39 16,9 11,8 1,9 ZO 0,5 1016,6 72 -
00:44 16,9 12,0 3,7 ZZO 2,3 1016,7 73 -
00:49 16,8 11,9 1,9 ZZO 0,3 1016,7 73 -
00:54 16,8 11,9 1,9 ZZO 0,3 1016,7 73 -
00:59 16,7 11,8   Kalm   1016,7 73 -
01:04 16,6 11,7 3,7 ZZO 1,1 1016,7 73 -
01:09 16,5 11,8 5,6 ZZO 1,1 1016,7 74 -
01:14 16,4 11,8 7,4 ZW 4,2 1016,8 74 -
01:19 16,5 11,8 5,6 ZW 2,1 1016,8 74 -
01:24 16,5 11,8 5,6 Zuiden 2,9 1016,8 74 -
01:29 16,6 11,9 5,6 ZZW 3,5 1016,8 74 -
01:32 16,6 11,9 5,6 ZW 3,5 1016,8 74 -
01:39 16,7 12,1 3,7 ZW 2,9 1016,9 74 -
01:44 16,8 12,1 5,6 ZW 3,4 1016,9 74 -
01:49 16,8 12,3 3,7 ZW 3,5 1017,0 75 -
01:54 16,8 12,3 3,7 ZW 1,1 1016,9 75 -
01:59 16,7 12,2 3,7 ZW 1,0 1017,0 75 -
02:04 16,6 12,2 1,9 ZW 0,6 1016,9 75 -
02:09 16,5 12,1   Kalm   1016,9 75 -
02:14 16,3 11,9 1,9 ZW 0,3 1017,0 75 -
02:19 16,2 11,9 1,9 ZW 1,3 1017,0 76 -
02:24 16,0 12,2 5,6 ZW 4,2 1017,1 78 -
02:29 16,0 12,3 5,6 ZW 3,9 1017,1 79 -
02:34 16,2 12,7 5,6 ZW 2,7 1017,1 80 -
02:39 16,3 12,9 5,6 WZW 4,5 1017,0 80 -
02:44 16,4 13,0 5,6 WZW 4,5 1017,1 80 -
02:49 16,5 13,1 5,6 WZW 1,9 1017,0 80 -
02:54 16,5 13,1 5,6 WZW 2,1 1017,1 80 -
02:59 16,4 13,2 5,6 WZW 2,6 1017,1 81 -
03:04 16,4 13,1 3,7 WZW 1,6 1017,0 81 -
03:09 16,3 13,3 3,7 WZW 2,1 1017,1 82 -
03:14 16,3 13,2 3,7 WZW 2,3 1017,0 82 -
03:19 16,2 13,3 3,7 WZW 0,6 1017,0 83 -
03:24 16,1 13,2   Kalm   1016,9 83 -
03:29 16,0 13,1   Kalm   1017,0 83 -
03:34 15,8 12,8   Kalm   1016,8 82 -
03:39 15,7 12,6   Kalm   1016,8 82 -
03:44 15,6 12,5   Kalm   1016,8 82 -
03:49 15,3 12,3   Kalm   1016,8 82 -
03:54 15,2 12,1   Kalm   1016,8 82 -
03:59 15,1 12,0   Kalm   1016,8 82 -
04:04 14,9 12,0   Kalm   1016,7 83 -
04:09 14,7 11,9   Kalm   1016,7 83 -
04:14 14,6 11,8   Kalm   1016,6 83 -
04:19 14,5 11,8   Kalm   1016,5 84 -
04:24 14,4 11,7   Kalm   1016,5 84 -
04:29 14,3 11,6   Kalm   1016,4 84 -
04:34 14,2 11,7   Kalm   1016,5 85 -
04:39 14,1 11,6   Kalm   1016,5 85 -
04:44 14,0 11,5   Kalm   1016,5 85 -
04:49 13,9 11,4 1,9 WZW   1016,5 85 -
04:54 13,9 11,6   Kalm 0,2 1016,6 86 -
04:59 14,0 11,9   Kalm   1016,6 87 -
05:04 14,1 12,2 3,7 WZW 1,9 1016,7 88 -
05:09 14,2 12,4 1,9 WZW 0,2 1016,7 89 -
05:14 14,3 12,5 3,7 WZW 2,3 1016,8 89 -
05:19 14,4 12,8 3,7 WZW 2,6 1016,8 90 -
05:24 14,6 13,0 1,9 WZW 1,1 1016,8 90 -
05:29 14,7 13,1 3,7 WZW 1,6 1016,9 90 -
05:34 14,7 13,1 3,7 WZW 0,8 1016,8 90 -
05:39 14,7 13,1 5,6 WZW 0,8 1016,9 90 -
05:44 14,7 13,1 4,8 WZW 2,4 1017,0 90 -
05:49 14,8 13,3 3,7 WZW 2,3 1017,0 91 -
05:54 14,9 13,5 3,7 WZW 1,6 1017,0 91 -
05:59 15,1 13,6 5,6 WZW 1,4 1017,2 91 -
06:04 15,1 13,8 5,6 WZW 2,3 1017,2 92 -
06:09 15,1 13,8 5,6 WZW 3,5 1017,1 92 -
06:14 15,2 13,9 7,4 WZW 4,5 1017,2 92 -
06:19 15,3 14,0 5,6 WZW 4,2 1017,2 92 -
06:24 15,2 13,9 5,6 ZW 4,5 1017,3 92 -
06:29 15,3 14,0 5,6 WZW 3,9 1017,3 92 -
06:34 15,3 14,0 5,6 WZW 4,0 1017,3 92 -
06:39 15,2 13,9 3,7 WZW 1,3 1017,4 92 -
06:44 15,2 13,9 6,4 ZW 4,5 1017,4 92 -
06:49 15,3 14,0 9,3 ZW 6,4 1017,4 92 -
06:54 15,4 14,3 5,6 ZW 4,7 1017,4 93 -
06:59 15,5 14,4 7,4 ZW 4,5 1017,4 93 -
07:04 15,6 14,3 6,4 WZW 5,1 1017,4 92 -
07:09 15,6 14,3 11,1 ZW 6,6 1017,4 92 -
07:14 15,5 14,2 7,4 ZW 4,0 1017,4 92 -
07:19 15,4 14,2 5,6 WZW 5,3 1017,4 92 -
07:24 15,4 14,2 8,0 WZW 5,6 1017,4 92 -
07:29 15,4 14,2 5,6 WZW 3,9 1017,4 92 -
07:34 15,4 14,2 5,6 WZW 2,7 1017,5 92 -
07:39 15,4 14,2 3,7 WZW 1,4 1017,5 92 -
07:44 15,5 14,2 5,6 WZW 1,3 1017,5 92 -
07:49 15,5 14,2 3,7 WZW 3,1 1017,6 92 -
07:54 15,4 14,2 3,7 WZW 2,6 1017,6 92 -
07:59 15,4 13,9 5,6 WZW 2,7 1017,6 91 -
08:04 15,4 13,9 3,7 WZW 2,1 1017,7 91 -
08:09 15,3 13,9 5,6 WZW 2,9 1017,8 91 -
08:14 15,4 13,9 5,6 WZW 2,9 1017,8 91 -
08:19 15,4 13,9 3,7 WZW 2,6 1017,8 91 -
08:24 15,4 14,2 9,3 WZW 2,6 1017,9 92 -
08:29 15,6 14,3 5,6 WZW 3,7 1017,9 92 -
08:34 15,6 14,2 5,6 Westen 3,2 1017,9 91 -
08:39 15,7 14,2 9,3 Westen 6,4 1018,0 91 -
08:44 15,7 14,3 9,3 Westen 6,6 1018,0 91 -
08:49 15,8 14,3 5,6 Westen 3,9 1018,0 91 -
08:54 15,8 14,3 5,6 Westen 2,6 1018,0 91 -
08:59 15,8 14,3 6,4 Westen 3,7 1018,0 91 -
09:04 15,8 14,3 9,3 Westen 2,9 1018,0 91 -
09:09 15,7 14,3 3,7 Westen 2,6 1018,1 91 -
09:14 15,7 14,3 3,7 Westen 1,9 1018,1 91 -
09:19 15,7 14,2 5,6 Westen 2,3 1018,2 91 -
09:24 15,7 14,1 5,6 Westen 1,9 1018,2 90 -
09:29 15,7 14,1 3,7 Westen 0,6 1018,2 90 -
09:34 15,7 14,1 5,6 Westen 4,8 1018,1 90 -
09:39 15,8 13,9 5,6 Westen 2,1 1018,2 89 -
09:44 15,9 14,1 5,6 Westen 2,6 1018,0 89 -
09:49 15,9 13,9 1,9 Westen 1,0 1018,1 88 -
09:54 16,1 13,9 3,7 Westen 1,9 1018,1 87 -
09:59 16,3 14,0 3,7 ZW 1,3 1018,2 86 -
10:04 16,4 13,9 1,9 ZW 0,3 1018,2 85 -
10:09 16,7 13,8 6,4 ZW 3,2 1018,3 83 -
10:14 16,9 13,6 8,0 ZW 5,1 1018,3 81 -
10:19 17,1 13,4 6,4 ZW 4,7 1018,3 79 -
10:24 17,3 13,3 9,7 ZW 10,6 1018,5 77 -
10:29 17,4 12,9 11,3 Westen 6,9 1018,5 75 -
10:34 17,5 12,8 14,8 Westen 9,2 1018,5 74 -
10:39 17,4 12,8 13,0 ZW 10,5 1018,6 74 -
10:44 17,4 12,9 9,3 Westen 6,8 1018,7 75 -
10:49 17,4 12,9 14,8 Westen 7,7 1018,6 75 -
10:54 17,3 13,1 13,0 ZW 5,8 1018,6 76 -
10:59 17,3 13,0 11,3 Westen 10,9 1018,6 76 -
11:04 17,3 13,0 13,0 ZZW 8,7 1018,6 76 -
11:09 17,2 13,2 14,8 WZW 10,5 1018,7 77 -
11:14 17,1 13,2 16,7 ZW 7,4 1018,7 78 -
11:19 17,1 13,4 13,0 ZZW 9,2 1018,8 79 -
11:24 17,1 13,4 11,3 WZW 8,8 1018,7 79 -
11:29 17,0 13,3 14,5 ZW 12,1 1018,8 79 -
11:34 17,0 13,5 14,8 WZW 7,1 1018,8 80 -
11:39 17,1 13,6 13,0 ZW 6,8 1018,8 80 -
11:44 17,1 13,6 5,6 Westen 5,6 1018,8 80 -
11:49 17,2 13,5 9,3 ZW 7,6 1018,8 79 -
11:54 17,3 13,6 14,8 Westen 4,2 1018,8 79 -
11:59 17,4 13,6 14,5 WZW 8,2 1018,8 78 -
12:04 17,6 13,6 13,0 Westen 7,6 1018,7 77 -
12:09 17,8 13,7 16,7 WZW 9,3 1018,7 77 -
12:14 18,0 13,7 14,8 ZZW 9,7 1018,7 76 -
12:19 18,2 13,7 11,1 WZW 8,8 1018,6 75 -
12:24 18,2 13,5 16,7 ZW 13,7 1018,6 74 -
12:29 18,3 13,6 16,7 ZW 10,5 1018,8 74 -
12:34 18,4 13,7 9,7 WZW 10,1 1018,9 74 -
12:39 18,6 14,1 13,0 ZZW 8,7 1018,8 75 -
12:44 18,8 13,8 17,7 ZZW 9,8 1018,9 73 -
12:49 18,9 13,8 14,8 WZW 5,1 1018,8 72 -
12:54 18,8 13,7 13,0 WZW 11,9 1018,8 72 -
12:59 18,6 13,6 13,0 WZW 9,3 1018,8 73 -
13:04 18,3 13,6 14,8 ZZW 6,4 1018,8 74 -
13:09 18,1 13,6 16,1 Westen 9,0 1018,8 75 -
13:14 18,3 13,8 13,0 WZW 7,4 1018,9 75 -
13:19 18,6 14,1 14,8 WNW 8,5 1018,8 75 -
13:24 18,4 13,9 12,9 ZW 10,6 1018,9 75 -
13:29 18,3 13,8 14,8 Westen 9,0 1018,8 75 -
13:34 18,3 13,6 16,1 WNW 8,7 1018,9 74 -
13:39 18,3 13,8 13,0 WZW 10,3 1018,9 75 -
13:44 18,1 13,8 9,7 WZW 7,9 1018,8 76 -
13:49 17,8 13,6 16,7 ZZW 7,1 1018,9 76 -
13:54 17,6 13,6 18,5 Westen 12,2 1019,0 77 -
13:59 17,3 13,4 13,0 Westen 6,6 1018,9 78 -
14:04 17,3 13,4 11,1 Westen 6,0 1018,9 78 -
14:09 17,2 13,6 11,1 WZW 6,1 1018,9 79 -
14:14 17,2 13,5 11,1 WZW 6,4 1019,0 79 -
14:19 17,2 13,5 14,8 Westen 9,8 1019,0 79 -
14:24 17,3 13,6 11,1 WNW 3,7 1019,0 79 -
14:29 17,3 13,6 11,1 Westen 6,3 1019,0 79 -
14:34 17,3 13,4 9,3 WZW 6,6 1019,0 78 -
14:39 17,4 13,5 7,4 Westen 4,5 1019,0 78 -
14:44 17,4 13,2 13,0 WZW 9,5 1019,0 76 -
14:49 17,4 12,7 9,3 ZW 6,1 1019,0 74 -
14:54 17,4 12,6 14,8 Westen 5,6 1019,0 73 -
14:59 17,4 12,6 6,4 ZW 7,2 1019,1 73 -
15:04 17,5 12,4 7,4 WZW 2,1 1019,1 72 -
15:09 17,8 12,4 12,9 WZW 9,5 1019,1 71 -
15:14 18,0 12,4 14,8 ZW 9,8 1019,1 70 -
15:19 18,2 12,6 13,0 ZW 7,7 1019,2 70 -
15:24 18,2 12,2 16,7 WZW 11,1 1019,2 68 -
15:29 18,3 12,5 14,8 ZW 10,9 1019,2 69 -
15:34 18,3 12,7 9,3 WZW 6,6 1019,2 70 -
15:39 18,5 12,9 18,5 Westen 8,7 1019,2 70 -
15:44 18,4 13,1 16,7 Westen 10,5 1019,2 71 -
15:49 18,0 12,9 16,7 WNW 11,4 1019,2 72 -
15:54 17,7 13,0 5,6 NW 3,1 1019,2 74 -
15:59 17,4 12,9 13,0 Westen 5,5 1019,2 75 -
16:04 17,3 13,0 13,0 ZW 6,9 1019,2 76 -
16:09 17,2 13,1 14,8 Westen 6,1 1019,3 77 -
16:14 17,1 13,1 13,0 WNW 7,6 1019,2 77 -
16:19 17,1 13,2 13,0 WNW 3,9 1019,2 78 -
16:24 17,1 13,1 9,3 WZW 4,5 1019,2 77 -
16:29 17,1 13,0 7,4 ZW 4,7 1019,2 77 -
16:34 17,1 13,0 9,3 Westen 7,6 1019,3 77 -
16:39 17,0 13,1 7,4 WZW 5,6 1019,2 78 -
16:44 17,1 13,2 12,9 Westen 6,0 1019,3 78 -
16:49 17,1 13,2 11,3 WZW 4,8 1019,3 78 -
16:54 17,2 13,3 11,1 WZW 6,9 1019,3 78 -
16:59 17,2 13,1 8,0 WNW 8,7 1019,3 77 -
17:04 17,0 12,9 7,4 ZW 3,2 1019,3 77 -
17:09 17,0 12,9 5,6 WNW 4,3 1019,3 77 -
17:14 16,9 13,1 11,1 WZW 5,3 1019,4 78 -
17:19 16,9 13,0 5,6 WNW 4,3 1019,4 78 -
17:24 16,8 13,2 6,4 WNW 3,5 1019,4 79 -
17:29 16,8 13,1 8,0 NNW 5,1 1019,5 79 -
17:34 16,7 13,0 5,6 WZW 4,7 1019,5 79 -
17:39 16,7 13,2 9,3 Westen 3,7 1019,6 80 -
17:44 16,7 13,1 6,4 WNW 3,1 1019,6 79 -
17:49 16,7 13,0 13,0 WNW 7,1 1019,6 79 -
17:54 16,6 12,9 9,3 Westen 4,2 1019,6 79 -
17:59 16,5 12,8 14,8 Westen 9,3 1019,6 79 -
18:04 16,3 12,7 9,7 Westen 6,9 1019,8 79 -
Dagelijkse Samenvatting Woensdag 17 oktober 2018
Tijd Temp. ( °C ) Dew pt. ( °C ) Wind ( km/h ) van Windvlaag ( km/h ) Luchtdruk ( hPa ) Humid.( % ) Rainrate ( cm )
Hoog18,9 14,4 18,5 WZW ( 533/1654 ) 13,7 1019,8 93 -
Gemiddeld16,5 13,1 7,6 WZW #72/217 4,5 1018,0 81 -
Laag13,9 11,4 -   0,0 1016,4 68 -
Dagelijkse Tabular details for Woensdag 17 oktober 2018
Tijd Temp. ( °C ) Dew pt. ( °C ) Wind ( km/h ) van Windvlaag ( km/h ) Luchtdruk ( hPa ) Humid.( % ) Rainrate ( cm )
00:04 16,9 12,0 7,4 ZO 3,5 1016,7 73 -
00:09 16,9 12,0 5,6 ZZO 3,1 1016,7 73 -
00:14 16,9 12,1 7,4 ZZO 0,6 1016,6 73 -
00:19 16,9 12,1 5,6 ZZO 2,6 1016,7 73 -
00:24 17,0 11,9 5,6 Zuiden 2,3 1016,7 72 -
00:29 17,0 11,9 5,6 ZZO 2,9 1016,6 72 -
00:34 17,0 11,9 5,6 ZZO 0,8 1016,6 72 -
00:39 16,9 11,8 1,9 ZO 0,5 1016,6 72 -
00:44 16,9 12,0 3,7 ZZO 2,3 1016,7 73 -
00:49 16,8 11,9 1,9 ZZO 0,3 1016,7 73 -
00:54 16,8 11,9 1,9 ZZO 0,3 1016,7 73 -
00:59 16,7 11,8   Kalm   1016,7 73 -
01:04 16,6 11,7 3,7 ZZO 1,1 1016,7 73 -
01:09 16,5 11,8 5,6 ZZO 1,1 1016,7 74 -
01:14 16,4 11,8 7,4 ZW 4,2 1016,8 74 -
01:19 16,5 11,8 5,6 ZW 2,1 1016,8 74 -
01:24 16,5 11,8 5,6 Zuiden 2,9 1016,8 74 -
01:29 16,6 11,9 5,6 ZZW 3,5 1016,8 74 -
01:32 16,6 11,9 5,6 ZW 3,5 1016,8 74 -
01:39 16,7 12,1 3,7 ZW 2,9 1016,9 74 -
01:44 16,8 12,1 5,6 ZW 3,4 1016,9 74 -
01:49 16,8 12,3 3,7 ZW 3,5 1017,0 75 -
01:54 16,8 12,3 3,7 ZW 1,1 1016,9 75 -
01:59 16,7 12,2 3,7 ZW 1,0 1017,0 75 -
02:04 16,6 12,2 1,9 ZW 0,6 1016,9 75 -
02:09 16,5 12,1   Kalm   1016,9 75 -
02:14 16,3 11,9 1,9 ZW 0,3 1017,0 75 -
02:19 16,2 11,9 1,9 ZW 1,3 1017,0 76 -
02:24 16,0 12,2 5,6 ZW 4,2 1017,1 78 -
02:29 16,0 12,3 5,6 ZW 3,9 1017,1 79 -
02:34 16,2 12,7 5,6 ZW 2,7 1017,1 80 -
02:39 16,3 12,9 5,6 WZW 4,5 1017,0 80 -
02:44 16,4 13,0 5,6 WZW 4,5 1017,1 80 -
02:49 16,5 13,1 5,6 WZW 1,9 1017,0 80 -
02:54 16,5 13,1 5,6 WZW 2,1 1017,1 80 -
02:59 16,4 13,2 5,6 WZW 2,6 1017,1 81 -
03:04 16,4 13,1 3,7 WZW 1,6 1017,0 81 -
03:09 16,3 13,3 3,7 WZW 2,1 1017,1 82 -
03:14 16,3 13,2 3,7 WZW 2,3 1017,0 82 -
03:19 16,2 13,3 3,7 WZW 0,6 1017,0 83 -
03:24 16,1 13,2   Kalm   1016,9 83 -
03:29 16,0 13,1   Kalm   1017,0 83 -
03:34 15,8 12,8   Kalm   1016,8 82 -
03:39 15,7 12,6   Kalm   1016,8 82 -
03:44 15,6 12,5   Kalm   1016,8 82 -
03:49 15,3 12,3   Kalm   1016,8 82 -
03:54 15,2 12,1   Kalm   1016,8 82 -
03:59 15,1 12,0   Kalm   1016,8 82 -
04:04 14,9 12,0   Kalm   1016,7 83 -
04:09 14,7 11,9   Kalm   1016,7 83 -
04:14 14,6 11,8   Kalm   1016,6 83 -
04:19 14,5 11,8   Kalm   1016,5 84 -
04:24 14,4 11,7   Kalm   1016,5 84 -
04:29 14,3 11,6   Kalm   1016,4 84 -
04:34 14,2 11,7   Kalm   1016,5 85 -
04:39 14,1 11,6   Kalm   1016,5 85 -
04:44 14,0 11,5   Kalm   1016,5 85 -
04:49 13,9 11,4 1,9 WZW   1016,5 85 -
04:54 13,9 11,6   Kalm 0,2 1016,6 86 -
04:59 14,0 11,9   Kalm   1016,6 87 -
05:04 14,1 12,2 3,7 WZW 1,9 1016,7 88 -
05:09 14,2 12,4 1,9 WZW 0,2 1016,7 89 -
05:14 14,3 12,5 3,7 WZW 2,3 1016,8 89 -
05:19 14,4 12,8 3,7 WZW 2,6 1016,8 90 -
05:24 14,6 13,0 1,9 WZW 1,1 1016,8 90 -
05:29 14,7 13,1 3,7 WZW 1,6 1016,9 90 -
05:34 14,7 13,1 3,7 WZW 0,8 1016,8 90 -
05:39 14,7 13,1 5,6 WZW 0,8 1016,9 90 -
05:44 14,7 13,1 4,8 WZW 2,4 1017,0 90 -
05:49 14,8 13,3 3,7 WZW 2,3 1017,0 91 -
05:54 14,9 13,5 3,7 WZW 1,6 1017,0 91 -
05:59 15,1 13,6 5,6 WZW 1,4 1017,2 91 -
06:04 15,1 13,8 5,6 WZW 2,3 1017,2 92 -
06:09 15,1 13,8 5,6 WZW 3,5 1017,1 92 -
06:14 15,2 13,9 7,4 WZW 4,5 1017,2 92 -
06:19 15,3 14,0 5,6 WZW 4,2 1017,2 92 -
06:24 15,2 13,9 5,6 ZW 4,5 1017,3 92 -
06:29 15,3 14,0 5,6 WZW 3,9 1017,3 92 -
06:34 15,3 14,0 5,6 WZW 4,0 1017,3 92 -
06:39 15,2 13,9 3,7 WZW 1,3 1017,4 92 -
06:44 15,2 13,9 6,4 ZW 4,5 1017,4 92 -
06:49 15,3 14,0 9,3 ZW 6,4 1017,4 92 -
06:54 15,4 14,3 5,6 ZW 4,7 1017,4 93 -
06:59 15,5 14,4 7,4 ZW 4,5 1017,4 93 -
07:04 15,6 14,3 6,4 WZW 5,1 1017,4 92 -
07:09 15,6 14,3 11,1 ZW 6,6 1017,4 92 -
07:14 15,5 14,2 7,4 ZW 4,0 1017,4 92 -
07:19 15,4 14,2 5,6 WZW 5,3 1017,4 92 -
07:24 15,4 14,2 8,0 WZW 5,6 1017,4 92 -
07:29 15,4 14,2 5,6 WZW 3,9 1017,4 92 -
07:34 15,4 14,2 5,6 WZW 2,7 1017,5 92 -
07:39 15,4 14,2 3,7 WZW 1,4 1017,5 92 -
07:44 15,5 14,2 5,6 WZW 1,3 1017,5 92 -
07:49 15,5 14,2 3,7 WZW 3,1 1017,6 92 -
07:54 15,4 14,2 3,7 WZW 2,6 1017,6 92 -
07:59 15,4 13,9 5,6 WZW 2,7 1017,6 91 -
08:04 15,4 13,9 3,7 WZW 2,1 1017,7 91 -
08:09 15,3 13,9 5,6 WZW 2,9 1017,8 91 -
08:14 15,4 13,9 5,6 WZW 2,9 1017,8 91 -
08:19 15,4 13,9 3,7 WZW 2,6 1017,8 91 -
08:24 15,4 14,2 9,3 WZW 2,6 1017,9 92 -
08:29 15,6 14,3 5,6 WZW 3,7 1017,9 92 -
08:34 15,6 14,2 5,6 Westen 3,2 1017,9 91 -
08:39 15,7 14,2 9,3 Westen 6,4 1018,0 91 -
08:44 15,7 14,3 9,3 Westen 6,6 1018,0 91 -
08:49 15,8 14,3 5,6 Westen 3,9 1018,0 91 -
08:54 15,8 14,3 5,6 Westen 2,6 1018,0 91 -
08:59 15,8 14,3 6,4 Westen 3,7 1018,0 91 -
09:04 15,8 14,3 9,3 Westen 2,9 1018,0 91 -
09:09 15,7 14,3 3,7 Westen 2,6 1018,1 91 -
09:14 15,7 14,3 3,7 Westen 1,9 1018,1 91 -
09:19 15,7 14,2 5,6 Westen 2,3 1018,2 91 -
09:24 15,7 14,1 5,6 Westen 1,9 1018,2 90 -
09:29 15,7 14,1 3,7 Westen 0,6 1018,2 90 -
09:34 15,7 14,1 5,6 Westen 4,8 1018,1 90 -
09:39 15,8 13,9 5,6 Westen 2,1 1018,2 89 -
09:44 15,9 14,1 5,6 Westen 2,6 1018,0 89 -
09:49 15,9 13,9 1,9 Westen 1,0 1018,1 88 -
09:54 16,1 13,9 3,7 Westen 1,9 1018,1 87 -
09:59 16,3 14,0 3,7 ZW 1,3 1018,2 86 -
10:04 16,4 13,9 1,9 ZW 0,3 1018,2 85 -
10:09 16,7 13,8 6,4 ZW 3,2 1018,3 83 -
10:14 16,9 13,6 8,0 ZW 5,1 1018,3 81 -
10:19 17,1 13,4 6,4 ZW 4,7 1018,3 79 -
10:24 17,3 13,3 9,7 ZW 10,6 1018,5 77 -
10:29 17,4 12,9 11,3 Westen 6,9 1018,5 75 -
10:34 17,5 12,8 14,8 Westen 9,2 1018,5 74 -
10:39 17,4 12,8 13,0 ZW 10,5 1018,6 74 -
10:44 17,4 12,9 9,3 Westen 6,8 1018,7 75 -
10:49 17,4 12,9 14,8 Westen 7,7 1018,6 75 -
10:54 17,3 13,1 13,0 ZW 5,8 1018,6 76 -
10:59 17,3 13,0 11,3 Westen 10,9 1018,6 76 -
11:04 17,3 13,0 13,0 ZZW 8,7 1018,6 76 -
11:09 17,2 13,2 14,8 WZW 10,5 1018,7 77 -
11:14 17,1 13,2 16,7 ZW 7,4 1018,7 78 -
11:19 17,1 13,4 13,0 ZZW 9,2 1018,8 79 -
11:24 17,1 13,4 11,3 WZW 8,8 1018,7 79 -
11:29 17,0 13,3 14,5 ZW 12,1 1018,8 79 -
11:34 17,0 13,5 14,8 WZW 7,1 1018,8 80 -
11:39 17,1 13,6 13,0 ZW 6,8 1018,8 80 -
11:44 17,1 13,6 5,6 Westen 5,6 1018,8 80 -
11:49 17,2 13,5 9,3 ZW 7,6 1018,8 79 -
11:54 17,3 13,6 14,8 Westen 4,2 1018,8 79 -
11:59 17,4 13,6 14,5 WZW 8,2 1018,8 78 -
12:04 17,6 13,6 13,0 Westen 7,6 1018,7 77 -
12:09 17,8 13,7 16,7 WZW 9,3 1018,7 77 -
12:14 18,0 13,7 14,8 ZZW 9,7 1018,7 76 -
12:19 18,2 13,7 11,1 WZW 8,8 1018,6 75 -
12:24 18,2 13,5 16,7 ZW 13,7 1018,6 74 -
12:29 18,3 13,6 16,7 ZW 10,5 1018,8 74 -
12:34 18,4 13,7 9,7 WZW 10,1 1018,9 74 -
12:39 18,6 14,1 13,0 ZZW 8,7 1018,8 75 -
12:44 18,8 13,8 17,7 ZZW 9,8 1018,9 73 -
12:49 18,9 13,8 14,8 WZW 5,1 1018,8 72 -
12:54 18,8 13,7 13,0 WZW 11,9 1018,8 72 -
12:59 18,6 13,6 13,0 WZW 9,3 1018,8 73 -
13:04 18,3 13,6 14,8 ZZW 6,4 1018,8 74 -
13:09 18,1 13,6 16,1 Westen 9,0 1018,8 75 -
13:14 18,3 13,8 13,0 WZW 7,4 1018,9 75 -
13:19 18,6 14,1 14,8 WNW 8,5 1018,8 75 -
13:24 18,4 13,9 12,9 ZW 10,6 1018,9 75 -
13:29 18,3 13,8 14,8 Westen 9,0 1018,8 75 -
13:34 18,3 13,6 16,1 WNW 8,7 1018,9 74 -
13:39 18,3 13,8 13,0 WZW 10,3 1018,9 75 -
13:44 18,1 13,8 9,7 WZW 7,9 1018,8 76 -
13:49 17,8 13,6 16,7 ZZW 7,1 1018,9 76 -
13:54 17,6 13,6 18,5 Westen 12,2 1019,0 77 -
13:59 17,3 13,4 13,0 Westen 6,6 1018,9 78 -
14:04 17,3 13,4 11,1 Westen 6,0 1018,9 78 -
14:09 17,2 13,6 11,1 WZW 6,1 1018,9 79 -
14:14 17,2 13,5 11,1 WZW 6,4 1019,0 79 -
14:19 17,2 13,5 14,8 Westen 9,8 1019,0 79 -
14:24 17,3 13,6 11,1 WNW 3,7 1019,0 79 -
14:29 17,3 13,6 11,1 Westen 6,3 1019,0 79 -
14:34 17,3 13,4 9,3 WZW 6,6 1019,0 78 -
14:39 17,4 13,5 7,4 Westen 4,5 1019,0 78 -
14:44 17,4 13,2 13,0 WZW 9,5 1019,0 76 -
14:49 17,4 12,7 9,3 ZW 6,1 1019,0 74 -
14:54 17,4 12,6 14,8 Westen 5,6 1019,0 73 -
14:59 17,4 12,6 6,4 ZW 7,2 1019,1 73 -
15:04 17,5 12,4 7,4 WZW 2,1 1019,1 72 -
15:09 17,8 12,4 12,9 WZW 9,5 1019,1 71 -
15:14 18,0 12,4 14,8 ZW 9,8 1019,1 70 -
15:19 18,2 12,6 13,0 ZW 7,7 1019,2 70 -
15:24 18,2 12,2 16,7 WZW 11,1 1019,2 68 -
15:29 18,3 12,5 14,8 ZW 10,9 1019,2 69 -
15:34 18,3 12,7 9,3 WZW 6,6 1019,2 70 -
15:39 18,5 12,9 18,5 Westen 8,7 1019,2 70 -
15:44 18,4 13,1 16,7 Westen 10,5 1019,2 71 -
15:49 18,0 12,9 16,7 WNW 11,4 1019,2 72 -
15:54 17,7 13,0 5,6 NW 3,1 1019,2 74 -
15:59 17,4 12,9 13,0 Westen 5,5 1019,2 75 -
16:04 17,3 13,0 13,0 ZW 6,9 1019,2 76 -
16:09 17,2 13,1 14,8 Westen 6,1 1019,3 77 -
16:14 17,1 13,1 13,0 WNW 7,6 1019,2 77 -
16:19 17,1 13,2 13,0 WNW 3,9 1019,2 78 -
16:24 17,1 13,1 9,3 WZW 4,5 1019,2 77 -
16:29 17,1 13,0 7,4 ZW 4,7 1019,2 77 -
16:34 17,1 13,0 9,3 Westen 7,6 1019,3 77 -
16:39 17,0 13,1 7,4 WZW 5,6 1019,2 78 -
16:44 17,1 13,2 12,9 Westen 6,0 1019,3 78 -
16:49 17,1 13,2 11,3 WZW 4,8 1019,3 78 -
16:54 17,2 13,3 11,1 WZW 6,9 1019,3 78 -
16:59 17,2 13,1 8,0 WNW 8,7 1019,3 77 -
17:04 17,0 12,9 7,4 ZW 3,2 1019,3 77 -
17:09 17,0 12,9 5,6 WNW 4,3 1019,3 77 -
17:14 16,9 13,1 11,1 WZW 5,3 1019,4 78 -
17:19 16,9 13,0 5,6 WNW 4,3 1019,4 78 -
17:24 16,8 13,2 6,4 WNW 3,5 1019,4 79 -
17:29 16,8 13,1 8,0 NNW 5,1 1019,5 79 -
17:34 16,7 13,0 5,6 WZW 4,7 1019,5 79 -
17:39 16,7 13,2 9,3 Westen 3,7 1019,6 80 -
17:44 16,7 13,1 6,4 WNW 3,1 1019,6 79 -
17:49 16,7 13,0 13,0 WNW 7,1 1019,6 79 -
17:54 16,6 12,9 9,3 Westen 4,2 1019,6 79 -
17:59 16,5 12,8 14,8 Westen 9,3 1019,6 79 -
18:04 16,3 12,7 9,7 Westen 6,9 1019,8 79 -

Download your copy of this data-set  here

Our weather-data as stored at Weather Underground. Script ontwikkeld door Jim McMurry. Aangepast voor de template door Leuven-Template.eu

U vindt ons ook hier:

Het Weer Aktueel

European Weather Network

Weather Underground

Benelux Weer Netwerk

Citizen Weather Observer Program (CWOP)

Apparatuur in gebruik:

Weerstation
Davis VP2

Weerprogramma
Weather Display

Weercomputer
My Computer

Webleverancier
WeservIT

Davis VP2

Weather Display

My Computer

WeservIT